CheckWX is a tool to help pilots better visualize weather data.  It is not intended as a substitute for an official pre-flight weather briefing.

19:15:58 UTC

DAAD METAR
Bou Saada Airport
Algeria
Current

1 hour ago

DAAD 261800Z 35022KT 8000 SCT026 21/13 Q1014
Observed
May-26 @ 18:00 UTC
Wind
  • 350° at 22 KTS
Visibility
7,998 meters
Flight Rules
MVFR
Cloud Levels
  • Scattered at 2,600' AGL
Temperature
21°C / 70°F
Dewpoint
13°C / 55°F
Humidity
60%
Altimeter
29.94" Hg
Pressure
1013.92 hPa
Previous

2 hours ago

DAAD 261700Z 35020KT 8000 SCT026 22/13 Q1014
Observed
May-26 @ 17:00 UTC
Wind
  • 350° at 20 KTS
Visibility
7,998 meters
Flight Rules
MVFR
Cloud Levels
  • Scattered at 2,600' AGL
Temperature
22°C / 72°F
Dewpoint
13°C / 55°F
Humidity
57%
Altimeter
29.94" Hg
Pressure
1013.92 hPa
Previous

3 hours ago

DAAD 261600Z 35022KT 8000 SCT026 22/11 Q1014
Observed
May-26 @ 16:00 UTC
Wind
  • 350° at 22 KTS
Visibility
7,998 meters
Flight Rules
MVFR
Cloud Levels
  • Scattered at 2,600' AGL
Temperature
22°C / 72°F
Dewpoint
11°C / 52°F
Humidity
50%
Altimeter
29.94" Hg
Pressure
1013.92 hPa